Time;durP1;ratioP1;P1;durP2;ratioP2;P2;SDS_P1;SDS_P2;PMS_P1;PMS_P2;Temp;Humidity;BMP_temperature;BMP_pressure;BME280_temperature;BME280_humidity;BME280_pressure;Samples;Min_cycle;Max_cycle;Signal;HPM_P1;HPM_P2
2022/01/16 00:06:14;;;;;;;25.55;11.23;;;;;;;19.72;15.82;99069.28;4975721;28;20130;-79
2022/01/16 00:08:40;;;;;;;27.50;11.00;;;;;;;19.91;15.81;99069.09;4976019;28;20030;-79
2022/01/16 00:11:07;;;;;;;35.17;11.93;;;;;;;19.85;15.25;99059.47;4971865;28;20034;-80
2022/01/16 00:13:33;;;;;;;33.15;12.27;;;;;;;19.66;15.39;99071.59;4975338;28;20034;-79
2022/01/16 00:15:59;;;;;;;28.48;11.52;;;;;;;19.74;15.95;99066.94;4975336;28;20042;-80
2022/01/16 00:18:29;;;;;;;31.95;11.20;;;;;;;19.92;15.60;99062.34;4975027;28;20039;-80
2022/01/16 00:20:55;;;;;;;33.45;11.65;;;;;;;20.02;15.66;99042.91;4975616;28;20563;-79
2022/01/16 00:23:27;;;;;;;35.42;13.65;;;;;;;19.90;15.37;99031.25;4974949;28;20037;-80
2022/01/16 00:25:55;;;;;;;27.45;11.85;;;;;;;19.82;15.52;99035.97;4974770;28;20467;-80
2022/01/16 00:28:22;;;;;;;39.30;12.93;;;;;;;19.57;15.81;99029.31;4974315;28;20502;-80
2022/01/16 00:30:49;;;;;;;30.48;12.55;;;;;;;19.52;15.96;99023.28;4974668;28;20039;-79
2022/01/16 00:33:16;;;;;;;31.67;13.10;;;;;;;19.77;15.80;99047.44;4975028;28;20034;-80
2022/01/16 00:35:42;;;;;;;36.63;11.20;;;;;;;19.83;15.79;99048.72;4975024;28;20030;-80
2022/01/16 00:38:09;;;;;;;29.15;12.35;;;;;;;20.21;15.24;99041.13;4975672;28;20375;-80
2022/01/16 00:40:35;;;;;;;37.35;12.07;;;;;;;20.30;14.71;98985.84;4974448;28;20035;-79
2022/01/16 00:43:03;;;;;;;40.67;12.93;;;;;;;20.38;14.60;99001.44;4974364;28;20031;-80
2022/01/16 00:45:33;;;;;;;37.25;13.68;;;;;;;20.19;14.77;99029.53;4974604;28;20101;-79
2022/01/16 00:48:03;;;;;;;36.75;12.98;;;;;;;20.05;15.20;99037.78;4974330;28;20491;-80
2022/01/16 00:50:30;;;;;;;37.47;14.57;;;;;;;20.20;15.14;99050.66;4974913;28;20110;-79
2022/01/16 00:52:57;;;;;;;47.03;16.77;;;;;;;20.12;15.35;99062.94;4974748;28;20478;-79
2022/01/16 00:55:23;;;;;;;47.33;15.75;;;;;;;19.74;15.49;99056.56;4974652;28;20058;-79
2022/01/16 00:57:49;;;;;;;37.03;14.32;;;;;;;19.68;15.74;99035.81;4974545;28;20038;-79
2022/01/16 01:00:15;;;;;;;41.50;14.73;;;;;;;19.82;15.54;99021.22;4974404;28;20042;-79
2022/01/16 01:02:42;;;;;;;41.13;16.10;;;;;;;19.97;15.08;99034.13;4974077;28;20573;-79
2022/01/16 01:05:08;;;;;;;38.53;14.50;;;;;;;19.99;15.11;99049.28;4974368;28;20364;-79
2022/01/16 01:07:35;;;;;;;31.20;12.65;;;;;;;20.11;15.05;99061.34;4974270;28;20510;-79
2022/01/16 01:10:02;;;;;;;38.70;13.10;;;;;;;20.24;14.52;99077.41;4974180;28;20508;-79
2022/01/16 01:12:40;;;;;;;36.05;12.68;;;;;;;19.98;14.95;99056.03;4974314;28;20031;-79
2022/01/16 01:15:09;;;;;;;31.17;12.77;;;;;;;19.86;14.78;99005.34;4976325;28;20031;-79
2022/01/16 01:17:44;;;;;;;34.75;11.93;;;;;;;20.00;14.53;99022.19;4978224;28;20121;-79
2022/01/16 01:20:14;;;;;;;33.90;11.77;;;;;;;20.16;14.33;99036.69;4978090;28;20529;-79
2022/01/16 01:22:40;;;;;;;38.25;13.18;;;;;;;20.11;14.15;99019.50;4978240;28;20114;-79
2022/01/16 01:25:08;;;;;;;36.63;12.68;;;;;;;19.89;14.44;99036.03;4978235;28;20035;-79
2022/01/16 01:27:34;;;;;;;38.33;14.00;;;;;;;20.09;14.42;99017.13;4981004;28;20041;-79
2022/01/16 01:30:06;;;;;;;39.67;15.13;;;;;;;20.23;14.38;99028.44;4979637;28;20057;-79
2022/01/16 01:32:35;;;;;;;44.70;16.52;;;;;;;20.25;14.69;98998.16;4978383;28;20121;-79
2022/01/16 01:35:02;;;;;;;36.88;15.40;;;;;;;19.68;15.47;98906.84;4978094;28;20031;-79
2022/01/16 01:37:28;;;;;;;38.58;14.60;;;;;;;19.51;15.11;98904.72;4977980;28;20062;-79
2022/01/16 01:39:54;;;;;;;35.85;14.65;;;;;;;19.49;15.02;98907.06;4977363;28;20035;-79
2022/01/16 01:42:20;;;;;;;41.30;14.15;;;;;;;19.68;15.18;98890.13;4978163;28;20066;-79
2022/01/16 01:53:00;;;;;;;34.88;12.93;;;;;;;19.58;15.12;98924.28;4977486;28;20049;-80
2022/01/16 01:55:27;;;;;;;36.50;14.05;;;;;;;19.58;15.37;98924.28;4977421;28;20070;-80
2022/01/16 01:57:53;;;;;;;32.20;14.07;;;;;;;19.80;15.36;98926.06;4977679;28;20449;-80
2022/01/16 02:00:20;;;;;;;35.00;13.05;;;;;;;19.84;15.14;98940.81;4977356;28;20043;-79
2022/01/16 02:05:34;;;;;;;38.03;13.60;;;;;;;19.64;15.24;98939.44;4977852;28;20050;-79
2022/01/16 02:08:02;;;;;;;32.85;13.07;;;;;;;19.83;15.50;98903.00;4976839;28;20038;-79
2022/01/16 02:10:28;;;;;;;32.22;12.48;;;;;;;19.91;15.05;98901.88;4977281;28;20502;-79
2022/01/16 02:13:00;;;;;;;42.40;13.40;;;;;;;19.52;14.93;98918.25;4977113;28;20171;-80
2022/01/16 02:15:49;;;;;;;42.92;15.20;;;;;;;19.21;15.61;98921.47;4977416;28;20053;-79
2022/01/16 02:32:12;;;;;;;38.03;14.63;;;;;;;20.39;14.12;98945.28;4976840;28;20086;-79
2022/01/16 02:34:43;;;;;;;37.65;13.95;;;;;;;20.26;13.96;98938.41;4977226;28;20027;-79
2022/01/16 02:37:13;;;;;;;36.35;14.20;;;;;;;20.20;14.44;98944.69;4976907;28;20034;-79
2022/01/16 02:39:42;;;;;;;34.60;14.15;;;;;;;20.19;14.44;98945.88;4975495;28;20035;-79
2022/01/16 02:42:12;;;;;;;44.15;14.02;;;;;;;19.75;14.35;98957.06;4957437;29;20547;-79
2022/01/16 02:47:12;;;;;;;39.90;15.38;;;;;;;19.60;14.94;98935.84;4968322;28;20439;-79
2022/01/16 02:49:43;;;;;;;36.47;14.18;;;;;;;19.76;14.96;98936.38;4976584;28;20102;-79
2022/01/16 02:52:10;;;;;;;;;;;;;;;19.95;14.45;98938.94;4958088;28;20035;-79
2022/01/16 02:54:39;;;;;;;32.75;14.63;;;;;;;20.12;14.23;98929.13;4957525;29;19914;-79
2022/01/16 02:57:11;;;;;;;40.05;16.77;;;;;;;20.10;14.03;98923.91;4957473;28;20032;-79
2022/01/16 02:59:39;;;;;;;32.45;13.95;;;;;;;19.81;14.55;98928.44;4976445;28;20035;-80
2022/01/16 03:02:05;;;;;;;38.40;13.40;;;;;;;19.46;14.88;98930.94;4955594;28;20089;-79
2022/01/16 03:04:33;;;;;;;38.15;13.93;;;;;;;19.33;14.99;98923.97;4957642;28;20039;-80
2022/01/16 03:07:01;;;;;;;32.15;14.27;;;;;;;19.10;15.27;98923.31;4956678;29;20031;-80
2022/01/16 03:09:36;;;;;;;30.88;12.18;;;;;;;19.26;14.97;98918.34;4956573;29;20046;-80
2022/01/16 03:12:07;;;;;;;33.85;13.40;;;;;;;19.55;15.01;98928.63;4957140;29;20066;-80
2022/01/16 03:14:33;;;;;;;;;;;;;;;19.55;14.60;98925.84;4957558;29;20083;-80
2022/01/16 03:16:59;;;;;;;40.63;13.23;;;;;;;19.33;14.76;98922.00;4956768;29;19956;-80
2022/01/16 03:22:10;;;;;;;38.22;13.60;;;;;;;19.55;14.93;98916.69;4956606;29;20046;-80
2022/01/16 03:24:39;;;;;;;34.00;13.40;;;;;;;19.48;14.95;98920.19;4956545;29;20039;-80
2022/01/16 03:27:12;;;;;;;42.05;14.68;;;;;;;19.32;14.98;98923.19;4972312;28;20186;-80
2022/01/16 03:29:40;;;;;;;32.55;13.70;;;;;;;19.49;15.26;98920.97;4976141;28;20050;-80
2022/01/16 03:32:09;;;;;;;33.28;12.57;;;;;;;19.64;14.76;98919.94;4975636;28;20039;-80
2022/01/16 03:34:35;;;;;;;43.95;14.50;;;;;;;19.75;14.57;98907.72;4975421;28;20031;-80
2022/01/16 03:37:02;;;;;;;34.90;13.95;;;;;;;19.56;14.60;98913.50;4977454;28;20030;-80
2022/01/16 03:39:28;;;;;;;32.40;12.90;;;;;;;19.68;14.41;98913.22;4995201;28;20022;-79
2022/01/16 03:41:55;;;;;;;33.50;12.90;;;;;;;19.77;14.11;98907.31;4956453;28;20039;-80
2022/01/16 03:44:22;;;;;;;36.65;13.05;;;;;;;19.90;14.12;98898.31;4956542;28;20027;-80
2022/01/16 03:46:49;;;;;;;33.70;11.52;;;;;;;19.90;14.13;98892.72;4956653;29;20515;-80
2022/01/16 03:49:22;;;;;;;42.35;13.68;;;;;;;19.78;14.31;98887.44;4956403;29;20058;-80
2022/01/16 03:51:50;;;;;;;33.00;12.10;;;;;;;19.87;14.05;98881.53;4964682;28;20042;-80
2022/01/16 03:54:19;;;;;;;33.35;12.73;;;;;;;19.81;14.16;98878.28;4979717;28;20022;-80
2022/01/16 03:56:45;;;;;;;29.45;12.13;;;;;;;19.67;14.41;98878.22;4983859;28;20509;-80
2022/01/16 03:59:12;;;;;;;33.92;12.60;;;;;;;19.77;14.26;98882.25;4975191;28;20031;-80
2022/01/16 04:01:39;;;;;;;36.20;12.68;;;;;;;19.84;14.25;98876.72;4975209;28;20126;-80
2022/01/16 04:04:05;;;;;;;34.40;12.57;;;;;;;19.91;14.77;98872.00;4975124;28;20030;-80
2022/01/16 04:06:32;;;;;;;32.72;12.65;;;;;;;19.82;14.39;98865.16;4975407;28;20159;-80
2022/01/16 04:08:59;;;;;;;33.67;12.38;;;;;;;19.79;14.38;98860.38;4974246;28;20356;-80
2022/01/16 04:11:28;;;;;;;34.53;11.98;;;;;;;19.83;14.48;98859.22;4975795;28;20039;-80
2022/01/16 04:14:04;;;;;;;33.70;12.00;;;;;;;19.67;14.37;98853.13;4975296;28;20195;-80
2022/01/16 04:16:31;;;;;;;23.13;9.55;;;;;;;19.45;14.62;98845.78;4974253;28;20386;-80
2022/01/16 04:18:57;;;;;;;33.05;12.15;;;;;;;19.47;14.68;98843.41;4974497;28;20458;-79
2022/01/16 04:21:26;;;;;;;31.63;11.40;;;;;;;19.26;14.69;98848.72;4975060;28;20479;-80
2022/01/16 04:23:53;;;;;;;27.13;10.75;;;;;;;19.05;14.64;98860.47;4974863;28;20038;-80
2022/01/16 04:26:20;;;;;;;27.35;10.30;;;;;;;19.29;14.68;98854.34;4967589;28;20059;-80
2022/01/16 04:28:47;;;;;;;25.67;9.75;;;;;;;19.58;14.18;98851.84;4975451;28;20145;-80
2022/01/16 04:31:14;;;;;;;31.02;10.73;;;;;;;19.72;14.19;98852.75;4974853;28;20070;-80
2022/01/16 04:33:41;;;;;;;32.25;11.10;;;;;;;19.84;13.85;98848.84;4974778;28;20168;-80
2022/01/16 04:36:08;;;;;;;30.63;11.15;;;;;;;19.82;13.73;98846.47;4974896;28;20371;-80
2022/01/16 04:38:36;;;;;;;25.10;10.00;;;;;;;19.41;14.08;98850.50;4975031;28;20031;-79
2022/01/16 04:43:47;;;;;;;23.70;9.68;;;;;;;18.53;15.09;98844.75;4971633;28;20064;-79
2022/01/16 04:46:27;;;;;;;24.63;10.93;;;;;;;18.41;15.25;98842.16;4986708;28;20030;-79
2022/01/16 04:48:54;;;;;;;22.15;9.50;;;;;;;18.46;15.11;98853.00;4993152;28;20058;-79
2022/01/16 04:51:21;;;;;;;21.45;8.73;;;;;;;18.61;14.88;98846.44;4981049;28;20423;-79
2022/01/16 04:53:48;;;;;;;26.25;9.18;;;;;;;19.04;14.58;98844.16;4974283;28;20109;-79
2022/01/16 04:56:15;;;;;;;25.45;8.55;;;;;;;19.13;14.56;98850.22;4989778;28;20034;-79
2022/01/16 04:58:42;;;;;;;24.25;9.07;;;;;;;19.27;14.26;98836.44;4993902;28;20033;-79
2022/01/16 05:01:09;;;;;;;21.05;8.68;;;;;;;19.18;13.87;98836.72;4974290;28;20451;-79
2022/01/16 05:03:35;;;;;;;30.13;10.80;;;;;;;18.81;14.09;98822.03;4988595;28;20061;-79
2022/01/16 05:06:03;;;;;;;35.42;10.80;;;;;;;18.76;14.32;98824.38;4993867;28;20030;-79
2022/01/16 05:08:30;;;;;;;26.20;9.80;;;;;;;18.55;14.52;98828.47;4987855;28;20031;-79
2022/01/16 05:10:57;;;;;;;24.38;9.75;;;;;;;18.92;14.57;98822.97;4961197;28;20050;-79
2022/01/16 05:16:34;;;;;;;30.38;9.80;;;;;;;18.86;14.11;98827.25;4955265;29;20043;-79
2022/01/16 05:19:02;;;;;;;18.05;7.30;;;;;;;19.06;14.49;98822.31;4975896;28;20053;-79
2022/01/16 05:21:28;;;;;;;24.90;8.40;;;;;;;19.40;14.14;98818.28;4993808;28;20034;-80
2022/01/16 05:23:54;;;;;;;25.83;8.95;;;;;;;19.08;14.18;98820.75;4993943;28;20026;-80
2022/01/16 05:26:26;;;;;;;24.25;9.50;;;;;;;18.61;14.48;98815.03;4975689;28;20031;-80
2022/01/16 05:28:55;;;;;;;22.58;8.55;;;;;;;18.83;14.65;98813.31;4974043;28;20513;-80
2022/01/16 05:31:22;;;;;;;28.63;9.75;;;;;;;18.98;14.32;98813.06;4974301;28;20110;-80
2022/01/16 05:33:49;;;;;;;31.67;10.52;;;;;;;19.15;14.22;98806.88;4973727;28;20050;-79
2022/01/16 05:36:15;;;;;;;26.20;9.00;;;;;;;19.10;14.14;98807.22;4977905;28;20035;-80
2022/01/16 05:38:41;;;;;;;22.60;8.95;;;;;;;19.12;13.83;98806.84;4993592;28;20486;-79
2022/01/16 05:41:07;;;;;;;22.80;7.80;;;;;;;19.32;13.61;98794.31;4967419;28;20475;-79
2022/01/16 05:43:33;;;;;;;23.17;8.75;;;;;;;19.48;13.57;98788.50;4954675;28;20066;-79
2022/01/16 05:45:59;;;;;;;27.08;8.95;;;;;;;19.48;13.39;98794.06;4970476;28;20035;-79
2022/01/16 05:48:26;;;;;;;25.00;8.73;;;;;;;19.56;13.41;98798.50;4974258;28;20063;-79
2022/01/16 05:50:52;;;;;;;24.48;8.98;;;;;;;19.62;13.32;98795.00;4973930;28;20038;-79
2022/01/16 05:53:18;;;;;;;18.98;8.20;;;;;;;19.29;13.50;98795.06;4974920;28;20030;-78
2022/01/16 05:55:44;;;;;;;32.80;9.20;;;;;;;19.36;13.60;98797.97;4973969;28;20102;-78
2022/01/16 05:58:11;;;;;;;26.60;9.27;;;;;;;19.48;13.65;98794.88;4973930;28;20061;-78
2022/01/16 06:00:38;;;;;;;26.30;9.65;;;;;;;19.59;13.49;98792.97;4974881;28;20042;-79
2022/01/16 06:03:05;;;;;;;28.08;8.90;;;;;;;19.67;13.26;98793.81;4977022;28;20200;-79
2022/01/16 06:05:31;;;;;;;27.95;9.20;;;;;;;19.49;13.49;98799.25;4977390;28;20034;-79
2022/01/16 06:08:00;;;;;;;22.95;9.32;;;;;;;19.44;13.53;98802.38;4976800;28;20030;-79
2022/01/16 06:10:27;;;;;;;27.75;10.32;;;;;;;19.19;13.50;98801.34;4982973;28;20031;-79
2022/01/16 06:12:53;;;;;;;26.55;8.45;;;;;;;19.08;13.82;98798.47;4996724;28;20030;-79
2022/01/16 06:15:21;;;;;;;23.23;8.85;;;;;;;18.97;13.73;98799.56;4996836;28;20026;-79
2022/01/16 06:17:47;;;;;;;26.70;9.85;;;;;;;18.80;14.04;98795.41;4996993;28;20070;-79
2022/01/16 06:20:16;;;;;;;20.30;8.32;;;;;;;18.48;13.87;98789.47;4996698;28;20112;-79
2022/01/16 06:22:46;;;;;;;24.85;9.23;;;;;;;18.39;14.16;98790.94;4996958;28;20043;-78
2022/01/16 06:25:13;;;;;;;26.77;10.63;;;;;;;18.57;13.80;98778.88;4978673;28;20037;-79
2022/01/16 06:27:40;;;;;;;27.15;10.40;;;;;;;18.53;14.11;98774.41;4983681;28;20030;-79
2022/01/16 06:30:09;;;;;;;23.77;9.88;;;;;;;18.40;14.26;98775.84;4996419;28;20027;-79
2022/01/16 06:32:36;;;;;;;25.05;10.65;;;;;;;18.45;14.35;98772.72;4996326;28;20054;-79
2022/01/16 06:35:02;;;;;;;27.45;9.63;;;;;;;18.38;14.05;98772.63;4996703;28;20034;-78
2022/01/16 06:37:29;;;;;;;29.73;10.57;;;;;;;18.52;14.03;98767.28;4996459;28;20092;-79
2022/01/16 06:39:55;;;;;;;35.30;12.57;;;;;;;18.86;14.11;98754.09;4979478;28;20030;-79
2022/01/16 06:42:21;;;;;;;38.58;15.48;;;;;;;19.04;13.93;98769.00;4976714;28;20051;-79
2022/01/16 06:44:47;;;;;;;27.90;12.85;;;;;;;19.20;13.63;98759.22;4976259;28;20027;-79
2022/01/16 06:47:13;;;;;;;35.50;13.60;;;;;;;19.19;13.69;98763.19;4977518;28;20022;-79
2022/01/16 06:49:39;;;;;;;35.08;13.13;;;;;;;18.94;13.51;98764.13;4976653;28;20096;-79
2022/01/16 06:52:05;;;;;;;30.25;11.43;;;;;;;18.88;13.63;98765.69;4976424;28;20035;-79
2022/01/16 06:54:31;;;;;;;21.02;8.75;;;;;;;18.94;13.55;98766.91;4976573;28;20034;-79
2022/01/16 06:56:57;;;;;;;26.15;10.23;;;;;;;18.87;13.39;98764.88;4976535;28;20034;-79
2022/01/16 06:59:23;;;;;;;23.13;9.30;;;;;;;18.61;13.83;98770.56;4976064;28;20092;-79
2022/01/16 07:01:50;;;;;;;28.67;11.27;;;;;;;18.42;13.96;98771.50;4984757;28;20031;-79
2022/01/16 07:04:16;;;;;;;52.92;14.45;;;;;;;18.42;14.13;98757.59;4996100;28;20409;-79
2022/01/16 07:06:42;;;;;;;32.95;13.77;;;;;;;18.39;14.25;98769.47;4996073;28;20040;-79
2022/01/16 07:09:08;;;;;;;31.20;12.05;;;;;;;18.62;14.07;98766.59;4976378;28;20505;-78
2022/01/16 07:11:34;;;;;;;34.13;12.80;;;;;;;18.78;14.32;98763.56;4975236;28;20070;-79
2022/01/16 07:14:00;;;;;;;33.13;13.30;;;;;;;19.11;14.08;98760.72;4976021;28;20090;-78
2022/01/16 07:16:26;;;;;;;32.75;11.27;;;;;;;19.06;14.00;98747.97;4975721;28;20118;-79
2022/01/16 07:18:52;;;;;;;29.65;12.32;;;;;;;19.40;13.78;98745.06;4978376;28;20047;-78
2022/01/16 07:21:18;;;;;;;32.88;11.77;;;;;;;19.62;13.84;98732.91;4976528;28;20058;-78
2022/01/16 07:23:46;;;;;;;29.77;12.55;;;;;;;19.52;14.16;98730.84;4976208;28;20380;-78
2022/01/16 07:26:16;;;;;;;30.67;12.13;;;;;;;19.49;14.32;98731.59;4976152;28;20110;-78
2022/01/16 07:28:43;;;;;;;32.60;11.65;;;;;;;19.43;14.46;98722.81;4976100;28;20074;-78
2022/01/16 07:31:09;;;;;;;32.25;10.82;;;;;;;18.99;14.94;98731.19;4975783;28;20039;-79
2022/01/16 07:33:35;;;;;;;25.13;11.82;;;;;;;18.87;15.30;98725.91;4975190;28;20049;-79
2022/01/16 07:36:02;;;;;;;35.25;12.23;;;;;;;19.02;15.43;98729.63;4985426;28;20030;-79
2022/01/16 07:38:28;;;;;;;28.05;11.77;;;;;;;18.76;15.64;98727.81;4995506;28;20034;-79
2022/01/16 07:40:54;;;;;;;40.92;14.77;;;;;;;18.56;16.04;98735.53;4995164;28;20041;-79
2022/01/16 07:43:20;;;;;;;31.38;12.50;;;;;;;19.02;15.68;98735.19;4995106;28;20069;-79
2022/01/16 07:45:46;;;;;;;37.15;13.73;;;;;;;19.40;15.36;98734.72;4974401;28;20039;-78
2022/01/16 07:48:13;;;;;;;31.10;12.07;;;;;;;19.75;15.04;98725.81;4975964;28;20364;-79
2022/01/16 07:50:39;;;;;;;31.67;12.80;;;;;;;19.82;15.34;98728.63;4975120;28;20034;-79
2022/01/16 07:53:07;;;;;;;36.90;14.32;;;;;;;19.49;15.58;98726.03;4985642;28;20038;-79
2022/01/16 07:55:33;;;;;;;31.63;12.65;;;;;;;19.82;15.52;98726.66;4994553;28;20462;-79
2022/01/16 07:58:00;;;;;;;27.88;11.48;;;;;;;19.87;15.64;98726.28;4994850;28;20031;-78
2022/01/16 08:00:27;;;;;;;28.08;11.23;;;;;;;20.14;15.52;98724.00;4994618;28;20505;-79
2022/01/16 08:02:53;;;;;;;26.80;9.43;;;;;;;20.32;15.32;98718.53;4995056;28;20412;-79
2022/01/16 08:05:21;;;;;;;26.80;11.25;;;;;;;20.09;15.53;98718.84;4994991;28;20049;-79
2022/01/16 08:07:48;;;;;;;26.10;10.98;;;;;;;19.45;16.24;98702.94;4977588;28;20027;-80
2022/01/16 08:10:14;;;;;;;26.10;10.48;;;;;;;19.49;16.13;98704.56;4975410;28;20023;-79
2022/01/16 08:12:41;;;;;;;20.17;9.63;;;;;;;19.69;15.94;98710.66;4975191;28;20031;-79
2022/01/16 08:15:08;;;;;;;30.48;10.50;;;;;;;18.45;16.73;98708.78;4975983;28;20046;-80
2022/01/16 08:17:36;;;;;;;27.98;10.68;;;;;;;18.40;17.22;98707.13;4975345;28;20087;-80
2022/01/16 08:20:08;;;;;;;24.85;9.88;;;;;;;18.98;16.74;98703.75;4975142;28;20094;-80
2022/01/16 08:22:35;;;;;;;29.25;11.20;;;;;;;19.68;16.62;98692.34;4958556;28;20023;-80
2022/01/16 08:25:02;;;;;;;21.85;9.27;;;;;;;20.10;15.97;98686.97;4955317;29;20032;-80
2022/01/16 08:27:28;;;;;;;24.58;9.02;;;;;;;20.02;16.09;98688.13;4957794;28;20038;-80
2022/01/16 08:29:54;;;;;;;27.65;10.63;;;;;;;20.33;16.26;98684.69;4955521;29;20031;-80
2022/01/16 08:32:20;;;;;;;24.63;8.23;;;;;;;20.33;15.99;98676.31;4955569;29;20035;-80
2022/01/16 08:34:46;;;;;;;24.58;8.98;;;;;;;19.88;16.73;98674.16;4955514;29;20109;-80
2022/01/16 08:37:12;;;;;;;19.25;8.77;;;;;;;19.92;16.33;98677.72;4955567;29;20554;-80
2022/01/16 08:39:38;;;;;;;20.92;9.32;;;;;;;20.25;16.33;98674.72;4955458;29;20034;-80
2022/01/16 08:42:05;;;;;;;23.70;8.48;;;;;;;20.64;15.97;98652.47;4955453;29;20027;-80
2022/01/16 08:44:31;;;;;;;20.80;8.48;;;;;;;20.79;15.57;98640.13;4968616;28;20463;-80
2022/01/16 08:46:57;;;;;;;25.80;8.52;;;;;;;21.04;15.88;98640.09;4975015;28;20046;-80
2022/01/16 08:49:23;;;;;;;28.42;9.13;;;;;;;19.26;17.80;98628.81;4974839;28;20031;-80
2022/01/16 08:51:49;;;;;;;19.95;8.63;;;;;;;20.08;16.97;98635.56;4974709;28;20026;-80
2022/01/16 08:54:15;;;;;;;24.15;8.52;;;;;;;19.95;16.88;98627.56;4974384;28;20136;-80
2022/01/16 08:56:42;;;;;;;24.00;9.02;;;;;;;20.64;15.89;98618.97;4974570;28;20037;-80
2022/01/16 08:59:08;;;;;;;19.73;8.18;;;;;;;21.14;15.51;98620.56;4955222;28;20110;-80
2022/01/16 09:01:34;;;;;;;21.95;8.73;;;;;;;21.38;15.36;98623.75;4964451;28;20063;-80
2022/01/16 09:04:00;;;;;;;19.50;8.40;;;;;;;21.38;15.46;98618.16;4954991;29;20039;-80
2022/01/16 09:06:27;;;;;;;27.60;9.05;;;;;;;21.55;15.41;98608.91;4954967;29;20028;-80
2022/01/16 09:08:54;;;;;;;17.13;7.85;;;;;;;21.94;14.98;98606.78;4955211;29;20035;-80
2022/01/16 09:11:25;;;;;;;20.25;8.07;;;;;;;21.25;15.37;98603.81;4968106;28;20058;-80
2022/01/16 09:13:52;;;;;;;16.73;6.60;;;;;;;21.47;14.65;98588.56;4973802;28;20037;-80
2022/01/16 09:16:19;;;;;;;22.00;8.30;;;;;;;21.66;14.85;98588.09;4974334;28;20035;-80
2022/01/16 09:18:45;;;;;;;16.40;6.75;;;;;;;21.93;14.57;98589.22;4985007;28;20104;-80
2022/01/16 09:21:11;;;;;;;19.35;7.55;;;;;;;21.98;14.50;98585.22;4986869;28;20031;-80
2022/01/16 09:23:38;;;;;;;19.45;6.93;;;;;;;22.24;14.66;98581.06;4974122;28;20039;-80
2022/01/16 09:26:04;;;;;;;16.52;7.18;;;;;;;22.15;14.20;98570.31;4974597;28;20089;-80
2022/01/16 09:28:30;;;;;;;21.63;7.45;;;;;;;22.47;14.66;98562.50;4974184;28;20038;-80
2022/01/16 09:30:56;;;;;;;17.23;6.68;;;;;;;22.51;13.97;98554.88;4973778;28;20042;-80
2022/01/16 09:33:22;;;;;;;17.65;6.78;;;;;;;22.15;14.49;98539.53;4974160;28;20487;-80
2022/01/16 09:35:48;;;;;;;15.88;7.03;;;;;;;22.25;14.46;98547.06;4992080;28;20034;-80
2022/01/16 09:38:14;;;;;;;18.58;6.82;;;;;;;22.74;14.23;98553.50;4997631;28;20026;-80
2022/01/16 09:40:46;;;;;;;15.38;6.80;;;;;;;22.45;13.83;98541.75;4997931;28;20035;-80
2022/01/16 09:43:12;;;;;;;19.55;7.35;;;;;;;22.52;13.57;98547.28;4989244;28;20028;-80
2022/01/16 09:45:38;;;;;;;15.73;6.15;;;;;;;22.44;13.67;98540.94;4959463;29;20384;-80
2022/01/16 09:48:05;;;;;;;15.13;6.53;;;;;;;22.16;13.57;98541.16;4960878;28;20034;-80
2022/01/16 09:50:31;;;;;;;13.27;6.03;;;;;;;22.43;13.70;98539.34;4977721;28;20030;-80
2022/01/16 09:52:59;;;;;;;14.13;5.78;;;;;;;22.87;14.04;98543.38;4994771;28;20038;-80
2022/01/16 09:55:25;;;;;;;12.13;5.75;;;;;;;22.87;13.14;98535.00;4997437;28;20062;-80
2022/01/16 09:57:54;;;;;;;15.38;5.78;;;;;;;23.14;13.68;98527.50;4997189;28;20049;-80
2022/01/16 10:00:21;;;;;;;15.00;6.38;;;;;;;23.62;12.70;98525.34;4997105;28;20037;-80
2022/01/16 10:02:48;;;;;;;11.40;5.18;;;;;;;23.99;12.71;98519.59;4996987;28;20490;-80
2022/01/16 10:05:26;;;;;;;12.10;4.82;;;;;;;23.51;13.52;98509.88;4992715;28;20370;-80
2022/01/16 10:07:54;;;;;;;18.23;7.57;;;;;;;23.28;13.09;98510.53;4978081;28;20050;-80
2022/01/16 10:10:24;;;;;;;12.85;5.18;;;;;;;23.56;13.97;98510.22;4996032;28;20041;-80
2022/01/16 10:12:54;;;;;;;14.82;5.38;;;;;;;24.22;13.56;98506.88;4979896;28;20086;-80
2022/01/16 10:15:21;;;;;;;13.10;5.55;;;;;;;24.19;13.29;98502.91;4978196;28;20022;-80
2022/01/16 10:17:52;;;;;;;15.95;6.10;;;;;;;24.54;13.34;98498.72;4976401;28;20432;-81
2022/01/16 10:20:19;;;;;;;14.07;6.97;;;;;;;24.91;14.03;98492.88;4976862;28;20038;-80
2022/01/16 10:22:47;;;;;;;13.45;6.07;;;;;;;25.17;13.96;98486.34;4977049;28;20098;-80
2022/01/16 10:25:16;;;;;;;17.60;7.47;;;;;;;25.37;13.08;98483.53;4977703;28;20031;-80
2022/01/16 10:27:45;;;;;;;18.38;7.50;;;;;;;25.51;13.30;98472.00;4977371;28;20081;-80
2022/01/16 10:30:14;;;;;;;13.98;6.25;;;;;;;25.54;12.28;98473.97;4976689;28;20491;-81
2022/01/16 10:32:43;;;;;;;11.93;5.75;;;;;;;25.45;11.69;98475.78;4976872;28;20487;-81
2022/01/16 10:35:22;;;;;;;11.70;5.72;;;;;;;25.45;11.81;98467.34;4976763;28;20031;-80
2022/01/16 10:37:52;;;;;;;12.60;5.07;;;;;;;25.46;11.28;98466.13;4976978;28;20037;-80
2022/01/16 10:40:35;;;;;;;16.35;6.78;;;;;;;25.41;11.85;98458.97;4976990;28;20038;-80
2022/01/16 10:43:13;;;;;;;20.88;9.73;;;;;;;25.58;12.04;98465.47;4974501;28;20105;-80
2022/01/16 10:45:41;;;;;;;12.95;6.30;;;;;;;25.67;11.51;98466.44;4957580;29;20035;-81
2022/01/16 10:48:07;;;;;;;16.25;6.00;;;;;;;25.75;12.28;98447.38;4956578;28;20069;-81
2022/01/16 10:50:39;;;;;;;9.25;5.28;;;;;;;25.76;11.92;98451.78;4963876;28;20081;-81
2022/01/16 10:53:23;;;;;;;14.00;7.72;;;;;;;25.91;12.86;98444.59;4975728;28;20101;-81
2022/01/16 10:55:55;;;;;;;12.35;5.65;;;;;;;25.89;12.41;98438.59;4976409;28;20031;-81
2022/01/16 10:58:22;;;;;;;10.80;5.80;;;;;;;25.93;12.61;98448.53;4976487;28;20041;-80
2022/01/16 11:01:03;;;;;;;14.05;5.75;;;;;;;26.03;11.73;98429.81;4992838;28;20042;-81
2022/01/16 11:03:37;;;;;;;13.13;5.90;;;;;;;25.98;12.35;98430.34;4996353;28;20046;-81
2022/01/16 11:06:03;;;;;;;15.85;7.65;;;;;;;26.10;12.58;98421.25;4984817;28;20034;-81
2022/01/16 11:08:30;;;;;;;9.35;4.38;;;;;;;26.09;11.48;98414.03;4975162;28;20387;-81
2022/01/16 11:10:59;;;;;;;10.70;4.63;;;;;;;26.18;12.32;98411.41;4977209;28;20114;-80
2022/01/16 11:13:30;;;;;;;9.80;4.57;;;;;;;26.01;12.95;98404.16;4975926;28;20038;-81
2022/01/16 11:15:58;;;;;;;;;;;;;;;25.75;11.25;98405.19;4960749;28;20538;-81
2022/01/16 11:18:25;;;;;;;12.57;4.60;;;;;;;26.01;12.32;98401.34;4992940;28;19918;-81
2022/01/16 11:23:47;;;;;;;11.85;5.15;;;;;;;25.72;11.43;98394.84;4976080;28;20051;-81
2022/01/16 11:26:15;;;;;;;14.35;6.40;;;;;;;25.96;12.24;98399.84;4976358;28;20097;-81
2022/01/16 11:28:42;;;;;;;10.48;4.95;;;;;;;25.98;10.51;98388.13;4975221;28;20402;-81
2022/01/16 11:31:11;;;;;;;10.48;4.80;;;;;;;25.79;12.04;98381.38;4976005;28;20035;-81
2022/01/16 11:33:38;;;;;;;17.45;8.40;;;;;;;26.12;11.66;98390.63;4976973;28;20035;-81
2022/01/16 11:36:06;;;;;;;9.30;4.68;;;;;;;25.64;11.75;98387.78;4976249;28;20035;-81
2022/01/16 11:38:35;;;;;;;11.07;5.03;;;;;;;25.01;11.84;98389.94;4975721;28;20031;-81
2022/01/16 11:41:16;;;;;;;11.00;5.00;;;;;;;24.31;12.30;98386.47;4975856;28;20439;-81
2022/01/16 11:43:47;;;;;;;12.20;6.10;;;;;;;24.43;13.17;98383.03;4975658;28;20023;-81
2022/01/16 11:46:34;;;;;;;12.90;5.38;;;;;;;23.48;13.00;98388.19;4976060;28;20034;-81
2022/01/16 11:49:01;;;;;;;13.93;5.07;;;;;;;23.26;12.57;98393.28;4975535;28;20110;-80
2022/01/16 11:51:34;;;;;;;11.10;4.75;;;;;;;22.82;13.38;98403.84;4988846;28;20478;-81
2022/01/16 11:54:19;;;;;;;12.50;5.65;;;;;;;22.61;12.33;98400.06;4994843;28;20410;-80
2022/01/16 11:56:45;;;;;;;18.17;7.13;;;;;;;22.10;14.43;98402.16;4995271;28;20121;-80
2022/01/16 11:59:11;;;;;;;10.48;5.80;;;;;;;22.11;13.43;98389.75;4994564;28;20152;-80
2022/01/16 12:01:55;;;;;;;14.18;6.97;;;;;;;22.63;12.96;98397.66;4994769;28;20039;-80
2022/01/16 12:04:30;;;;;;;13.13;6.72;;;;;;;22.82;13.29;98396.25;4977959;28;20026;-80
2022/01/16 12:06:58;;;;;;;15.05;6.65;;;;;;;22.45;12.48;98396.25;4962625;28;20032;-80
2022/01/16 12:12:16;;;;;;;17.50;7.32;;;;;;;22.41;13.38;98396.25;4995194;28;20035;-80